Airfield :
LOGIN :

Register | Disclaimer

   EN    FR    IT 

 










Legend :    VFR   Marginal VFR   IFR   Intensive IFR   Very Intensive IFR
Visi :
Ceiling :
>= 8 km
>= 3000ft
5 to 8 km
1000 to 3000 ft
1500m to 5 km
500 to 1000 ft
800 to 1500m
200 to 500 ft
< 800m
< 200 ft
Symbols :   Thunderstorms  Fog  Heavy snow  Heavy precipitations  Wind > 20 kt
SIGMETs :     Misc.  Thunderstorms  Icing  Turbulence  Mountain Waves  Volcanic Ashes






- Airport Elevation : 1 ft


EGCK - Caernarfon

CURRENT METAR :
  • 120520Z AUTO 16015KT 9999 -RA OVC009/// 05/04 Q0990

EXPIRED METARs :
  • 120450Z AUTO 17014KT 9999 -RA BKN010/// OVC031/// 05/04 Q0991
  • 120420Z AUTO 17011KT 9999 -RA BKN016/// OVC032/// 05/03 Q0993
  • 120350Z AUTO 17009KT 9999 -RA BKN014/// OVC028/// 05/03 Q0994
  • 120320Z AUTO 19010KT 9999 -RA BKN012/// OVC042/// 05/02 Q0994
  • 120250Z AUTO 21015KT 9999 -RA FEW026/// BKN035/// 06/02 Q0995

TAF TAF EGCK
Valid from the 12 at 03:00 until the 12 at 12:00 UTC


120155Z 1203/1212 22015KT 9999 SCT025
TEMPO 1203/1212 24015G25KT 6000 SHRA BKN014



MET'MAP, your aeronautical weather chart ! - Copyright ORBIFLY December 2007 - Disclaimer

ORBIFLY MET'MAP TEAM :

Programming & Development : Alexandra Zaïnal
Concept & original design : Baudouin d'Aumeries
Assistance for programming : Marc-Olivier Méhu
Technical & hardware support : Manuel Goepfert

Contact : metmap@orbifly.com




SOURCES & CREDITS :

   NOAA